sensor_id;sensor_type;location;lat;lon;timestamp;P1;durP1;ratioP1;P2;durP2;ratioP2
15061;SDS011;7630;50.306;8.566;2022-11-15T00:03:58;15.87;;;14.37;;
15061;SDS011;7630;50.306;8.566;2022-11-15T00:07:59;15.80;;;14.33;;
15061;SDS011;7630;50.306;8.566;2022-11-15T00:12:01;14.17;;;12.87;;
15061;SDS011;7630;50.306;8.566;2022-11-15T00:16:02;19.80;;;15.47;;
15061;SDS011;7630;50.306;8.566;2022-11-15T00:20:03;14.63;;;13.23;;
15061;SDS011;7630;50.306;8.566;2022-11-15T00:24:05;16.80;;;15.23;;
15061;SDS011;7630;50.306;8.566;2022-11-15T00:28:06;16.23;;;14.47;;
15061;SDS011;7630;50.306;8.566;2022-11-15T00:32:07;15.57;;;13.93;;
15061;SDS011;7630;50.306;8.566;2022-11-15T00:36:09;13.97;;;12.57;;
15061;SDS011;7630;50.306;8.566;2022-11-15T00:40:11;18.47;;;13.97;;
15061;SDS011;7630;50.306;8.566;2022-11-15T00:44:13;13.80;;;12.43;;
15061;SDS011;7630;50.306;8.566;2022-11-15T00:48:14;14.60;;;12.33;;
15061;SDS011;7630;50.306;8.566;2022-11-15T00:52:17;15.73;;;12.63;;
15061;SDS011;7630;50.306;8.566;2022-11-15T00:56:18;15.23;;;13.13;;
15061;SDS011;7630;50.306;8.566;2022-11-15T01:00:20;13.57;;;11.80;;
15061;SDS011;7630;50.306;8.566;2022-11-15T01:04:21;12.97;;;11.93;;
15061;SDS011;7630;50.306;8.566;2022-11-15T01:08:22;12.10;;;10.90;;
15061;SDS011;7630;50.306;8.566;2022-11-15T01:12:23;13.00;;;11.90;;
15061;SDS011;7630;50.306;8.566;2022-11-15T01:16:24;12.40;;;11.30;;
15061;SDS011;7630;50.306;8.566;2022-11-15T01:20:25;13.50;;;11.53;;
15061;SDS011;7630;50.306;8.566;2022-11-15T01:24:26;12.37;;;10.77;;
15061;SDS011;7630;50.306;8.566;2022-11-15T01:28:34;12.73;;;11.60;;
15061;SDS011;7630;50.306;8.566;2022-11-15T01:32:37;12.90;;;11.60;;
15061;SDS011;7630;50.306;8.566;2022-11-15T01:36:38;12.83;;;11.60;;
15061;SDS011;7630;50.306;8.566;2022-11-15T01:40:39;11.93;;;10.83;;
15061;SDS011;7630;50.306;8.566;2022-11-15T01:44:48;14.93;;;13.47;;
15061;SDS011;7630;50.306;8.566;2022-11-15T01:48:51;12.77;;;11.63;;
15061;SDS011;7630;50.306;8.566;2022-11-15T01:52:54;13.60;;;12.40;;
15061;SDS011;7630;50.306;8.566;2022-11-15T01:57:00;12.90;;;11.77;;
15061;SDS011;7630;50.306;8.566;2022-11-15T02:01:04;13.63;;;12.27;;
15061;SDS011;7630;50.306;8.566;2022-11-15T02:05:05;14.87;;;11.77;;
15061;SDS011;7630;50.306;8.566;2022-11-15T02:09:07;13.83;;;12.47;;
15061;SDS011;7630;50.306;8.566;2022-11-15T02:13:08;12.60;;;11.27;;
15061;SDS011;7630;50.306;8.566;2022-11-15T02:17:20;13.17;;;12.07;;
15061;SDS011;7630;50.306;8.566;2022-11-15T02:30:19;13.10;;;12.07;;
15061;SDS011;7630;50.306;8.566;2022-11-15T02:34:27;12.80;;;10.90;;
15061;SDS011;7630;50.306;8.566;2022-11-15T02:42:56;12.13;;;10.93;;
15061;SDS011;7630;50.306;8.566;2022-11-15T02:47:18;12.33;;;11.13;;
15061;SDS011;7630;50.306;8.566;2022-11-15T02:51:21;13.73;;;12.43;;
15061;SDS011;7630;50.306;8.566;2022-11-15T02:55:29;13.23;;;11.77;;
15061;SDS011;7630;50.306;8.566;2022-11-15T03:03:48;14.00;;;12.70;;
15061;SDS011;7630;50.306;8.566;2022-11-15T03:08:01;12.97;;;11.87;;
15061;SDS011;7630;50.306;8.566;2022-11-15T03:20:42;14.83;;;12.27;;
15061;SDS011;7630;50.306;8.566;2022-11-15T03:24:45;14.47;;;13.23;;
15061;SDS011;7630;50.306;8.566;2022-11-15T03:28:50;12.90;;;11.83;;
15061;SDS011;7630;50.306;8.566;2022-11-15T03:32:57;14.87;;;13.10;;
15061;SDS011;7630;50.306;8.566;2022-11-15T03:37:01;13.87;;;12.57;;
15061;SDS011;7630;50.306;8.566;2022-11-15T03:41:05;13.43;;;12.13;;
15061;SDS011;7630;50.306;8.566;2022-11-15T03:45:14;11.30;;;10.20;;
15061;SDS011;7630;50.306;8.566;2022-11-15T03:49:32;12.93;;;10.00;;
15061;SDS011;7630;50.306;8.566;2022-11-15T03:53:31;11.50;;;10.30;;
15061;SDS011;7630;50.306;8.566;2022-11-15T03:57:33;10.43;;;9.40;;
15061;SDS011;7630;50.306;8.566;2022-11-15T04:01:34;11.80;;;10.60;;
15061;SDS011;7630;50.306;8.566;2022-11-15T04:05:35;10.40;;;9.33;;
15061;SDS011;7630;50.306;8.566;2022-11-15T04:09:36;10.37;;;9.37;;
15061;SDS011;7630;50.306;8.566;2022-11-15T04:13:56;10.97;;;10.13;;
15061;SDS011;7630;50.306;8.566;2022-11-15T04:17:57;14.00;;;9.93;;
15061;SDS011;7630;50.306;8.566;2022-11-15T04:21:58;10.77;;;9.77;;
15061;SDS011;7630;50.306;8.566;2022-11-15T04:26:19;9.73;;;8.93;;
15061;SDS011;7630;50.306;8.566;2022-11-15T04:30:22;11.40;;;10.23;;
15061;SDS011;7630;50.306;8.566;2022-11-15T04:34:23;10.43;;;9.43;;
15061;SDS011;7630;50.306;8.566;2022-11-15T04:38:24;18.80;;;11.20;;
15061;SDS011;7630;50.306;8.566;2022-11-15T04:42:25;11.97;;;10.87;;
15061;SDS011;7630;50.306;8.566;2022-11-15T04:46:26;12.57;;;11.37;;
15061;SDS011;7630;50.306;8.566;2022-11-15T04:50:27;11.47;;;10.23;;
15061;SDS011;7630;50.306;8.566;2022-11-15T04:54:28;12.00;;;11.03;;
15061;SDS011;7630;50.306;8.566;2022-11-15T04:58:29;13.47;;;12.17;;
15061;SDS011;7630;50.306;8.566;2022-11-15T05:02:31;16.23;;;14.53;;
15061;SDS011;7630;50.306;8.566;2022-11-15T05:06:34;13.57;;;12.27;;
15061;SDS011;7630;50.306;8.566;2022-11-15T05:10:34;13.17;;;11.90;;
15061;SDS011;7630;50.306;8.566;2022-11-15T05:14:35;10.77;;;9.87;;
15061;SDS011;7630;50.306;8.566;2022-11-15T05:18:37;13.13;;;10.67;;
15061;SDS011;7630;50.306;8.566;2022-11-15T05:22:39;13.00;;;11.73;;
15061;SDS011;7630;50.306;8.566;2022-11-15T05:26:41;12.07;;;10.97;;
15061;SDS011;7630;50.306;8.566;2022-11-15T05:30:42;12.47;;;11.00;;
15061;SDS011;7630;50.306;8.566;2022-11-15T05:34:43;12.57;;;11.40;;
15061;SDS011;7630;50.306;8.566;2022-11-15T05:38:45;12.63;;;11.57;;
15061;SDS011;7630;50.306;8.566;2022-11-15T05:42:47;11.13;;;10.23;;
15061;SDS011;7630;50.306;8.566;2022-11-15T05:46:49;11.87;;;10.63;;
15061;SDS011;7630;50.306;8.566;2022-11-15T05:50:54;11.50;;;10.40;;
15061;SDS011;7630;50.306;8.566;2022-11-15T05:54:56;13.35;;;12.15;;
15061;SDS011;7630;50.306;8.566;2022-11-15T05:58:58;12.30;;;10.93;;
15061;SDS011;7630;50.306;8.566;2022-11-15T06:03:00;12.00;;;10.10;;
15061;SDS011;7630;50.306;8.566;2022-11-15T06:07:01;12.73;;;11.67;;
15061;SDS011;7630;50.306;8.566;2022-11-15T06:11:05;13.37;;;12.13;;
15061;SDS011;7630;50.306;8.566;2022-11-15T06:15:07;12.47;;;11.27;;
15061;SDS011;7630;50.306;8.566;2022-11-15T06:19:09;14.93;;;12.80;;
15061;SDS011;7630;50.306;8.566;2022-11-15T06:23:10;13.10;;;11.77;;
15061;SDS011;7630;50.306;8.566;2022-11-15T06:27:11;12.27;;;11.17;;
15061;SDS011;7630;50.306;8.566;2022-11-15T06:31:12;15.20;;;12.17;;
15061;SDS011;7630;50.306;8.566;2022-11-15T06:35:13;12.30;;;11.20;;
15061;SDS011;7630;50.306;8.566;2022-11-15T06:39:15;12.93;;;10.97;;
15061;SDS011;7630;50.306;8.566;2022-11-15T06:43:16;12.73;;;11.53;;
15061;SDS011;7630;50.306;8.566;2022-11-15T06:47:17;14.57;;;12.97;;
15061;SDS011;7630;50.306;8.566;2022-11-15T06:51:18;11.53;;;10.43;;
15061;SDS011;7630;50.306;8.566;2022-11-15T06:55:19;12.73;;;11.60;;
15061;SDS011;7630;50.306;8.566;2022-11-15T06:59:20;14.10;;;10.87;;
15061;SDS011;7630;50.306;8.566;2022-11-15T07:03:22;12.57;;;10.00;;
15061;SDS011;7630;50.306;8.566;2022-11-15T07:07:23;12.37;;;11.07;;
15061;SDS011;7630;50.306;8.566;2022-11-15T07:11:24;12.33;;;10.40;;
15061;SDS011;7630;50.306;8.566;2022-11-15T07:15:25;11.37;;;10.17;;
15061;SDS011;7630;50.306;8.566;2022-11-15T07:19:26;10.13;;;9.20;;
15061;SDS011;7630;50.306;8.566;2022-11-15T07:23:27;10.20;;;8.93;;
15061;SDS011;7630;50.306;8.566;2022-11-15T07:27:29;8.27;;;6.87;;
15061;SDS011;7630;50.306;8.566;2022-11-15T07:31:30;6.67;;;5.97;;
15061;SDS011;7630;50.306;8.566;2022-11-15T07:35:31;6.07;;;5.53;;
15061;SDS011;7630;50.306;8.566;2022-11-15T07:39:32;9.73;;;5.90;;
15061;SDS011;7630;50.306;8.566;2022-11-15T07:43:33;8.90;;;7.73;;
15061;SDS011;7630;50.306;8.566;2022-11-15T07:47:35;7.63;;;6.90;;
15061;SDS011;7630;50.306;8.566;2022-11-15T07:51:36;10.30;;;7.43;;
15061;SDS011;7630;50.306;8.566;2022-11-15T07:55:39;7.47;;;6.90;;
15061;SDS011;7630;50.306;8.566;2022-11-15T07:59:41;9.37;;;8.57;;
15061;SDS011;7630;50.306;8.566;2022-11-15T08:03:42;9.33;;;8.33;;
15061;SDS011;7630;50.306;8.566;2022-11-15T08:07:43;9.10;;;8.20;;
15061;SDS011;7630;50.306;8.566;2022-11-15T08:11:44;10.07;;;8.33;;
15061;SDS011;7630;50.306;8.566;2022-11-15T08:15:45;9.07;;;8.27;;
15061;SDS011;7630;50.306;8.566;2022-11-15T08:19:46;10.90;;;9.80;;
15061;SDS011;7630;50.306;8.566;2022-11-15T08:23:47;11.27;;;8.90;;
15061;SDS011;7630;50.306;8.566;2022-11-15T08:27:51;11.00;;;10.10;;
15061;SDS011;7630;50.306;8.566;2022-11-15T08:31:54;13.00;;;11.83;;
15061;SDS011;7630;50.306;8.566;2022-11-15T08:35:57;10.40;;;9.57;;
15061;SDS011;7630;50.306;8.566;2022-11-15T08:39:59;10.97;;;9.97;;
15061;SDS011;7630;50.306;8.566;2022-11-15T08:44:00;12.03;;;11.03;;
15061;SDS011;7630;50.306;8.566;2022-11-15T08:48:01;12.40;;;10.73;;
15061;SDS011;7630;50.306;8.566;2022-11-15T08:52:03;12.83;;;11.63;;
15061;SDS011;7630;50.306;8.566;2022-11-15T08:56:06;15.20;;;13.57;;
15061;SDS011;7630;50.306;8.566;2022-11-15T09:00:09;14.97;;;13.63;;
15061;SDS011;7630;50.306;8.566;2022-11-15T09:04:12;15.63;;;14.03;;
15061;SDS011;7630;50.306;8.566;2022-11-15T09:08:13;15.03;;;13.63;;
15061;SDS011;7630;50.306;8.566;2022-11-15T09:12:16;14.83;;;12.97;;
15061;SDS011;7630;50.306;8.566;2022-11-15T09:16:17;14.07;;;12.77;;
15061;SDS011;7630;50.306;8.566;2022-11-15T09:20:18;13.70;;;12.40;;
15061;SDS011;7630;50.306;8.566;2022-11-15T09:24:19;14.63;;;13.33;;
15061;SDS011;7630;50.306;8.566;2022-11-15T09:28:21;15.93;;;14.43;;
15061;SDS011;7630;50.306;8.566;2022-11-15T09:32:22;14.93;;;13.70;;
15061;SDS011;7630;50.306;8.566;2022-11-15T09:36:24;16.43;;;14.73;;
15061;SDS011;7630;50.306;8.566;2022-11-15T09:40:25;15.17;;;13.87;;
15061;SDS011;7630;50.306;8.566;2022-11-15T09:44:38;15.43;;;14.00;;
15061;SDS011;7630;50.306;8.566;2022-11-15T09:48:59;14.43;;;13.23;;
15061;SDS011;7630;50.306;8.566;2022-11-15T09:53:02;14.70;;;13.23;;
15061;SDS011;7630;50.306;8.566;2022-11-15T09:57:14;14.90;;;13.60;;
15061;SDS011;7630;50.306;8.566;2022-11-15T10:01:39;13.57;;;12.33;;
15061;SDS011;7630;50.306;8.566;2022-11-15T10:05:30;13.70;;;12.30;;
15061;SDS011;7630;50.306;8.566;2022-11-15T10:09:39;15.27;;;13.73;;
15061;SDS011;7630;50.306;8.566;2022-11-15T10:14:01;14.83;;;12.87;;
15061;SDS011;7630;50.306;8.566;2022-11-15T10:18:23;14.23;;;12.90;;
15061;SDS011;7630;50.306;8.566;2022-11-15T10:26:31;15.03;;;13.77;;
15061;SDS011;7630;50.306;8.566;2022-11-15T10:30:33;15.10;;;13.13;;
15061;SDS011;7630;50.306;8.566;2022-11-15T10:34:37;18.00;;;14.13;;
15061;SDS011;7630;50.306;8.566;2022-11-15T10:47:36;13.13;;;11.63;;
15061;SDS011;7630;50.306;8.566;2022-11-15T10:51:28;12.80;;;11.60;;
15061;SDS011;7630;50.306;8.566;2022-11-15T10:55:31;13.17;;;11.97;;
15061;SDS011;7630;50.306;8.566;2022-11-15T10:59:35;12.97;;;11.83;;
15061;SDS011;7630;50.306;8.566;2022-11-15T11:03:40;14.00;;;11.33;;
15061;SDS011;7630;50.306;8.566;2022-11-15T11:07:42;13.17;;;10.40;;
15061;SDS011;7630;50.306;8.566;2022-11-15T11:11:48;11.50;;;9.60;;
15061;SDS011;7630;50.306;8.566;2022-11-15T11:15:53;11.20;;;10.07;;
15061;SDS011;7630;50.306;8.566;2022-11-15T11:37:51;7.73;;;7.03;;
15061;SDS011;7630;50.306;8.566;2022-11-15T11:42:10;8.10;;;7.33;;
15061;SDS011;7630;50.306;8.566;2022-11-15T11:50:34;7.63;;;6.93;;
15061;SDS011;7630;50.306;8.566;2022-11-15T11:58:53;10.67;;;9.93;;
15061;SDS011;7630;50.306;8.566;2022-11-15T12:03:14;11.97;;;10.87;;
15061;SDS011;7630;50.306;8.566;2022-11-15T12:11:41;14.53;;;13.33;;
15061;SDS011;7630;50.306;8.566;2022-11-15T12:20:15;12.00;;;10.90;;
15061;SDS011;7630;50.306;8.566;2022-11-15T12:32:34;12.80;;;11.60;;
15061;SDS011;7630;50.306;8.566;2022-11-15T12:36:38;11.50;;;10.33;;
15061;SDS011;7630;50.306;8.566;2022-11-15T12:45:27;12.67;;;11.53;;
15061;SDS011;7630;50.306;8.566;2022-11-15T12:53:35;13.87;;;12.57;;
15061;SDS011;7630;50.306;8.566;2022-11-15T12:57:37;13.57;;;12.00;;
15061;SDS011;7630;50.306;8.566;2022-11-15T13:09:52;13.50;;;11.27;;
15061;SDS011;7630;50.306;8.566;2022-11-15T13:13:54;12.87;;;11.77;;
15061;SDS011;7630;50.306;8.566;2022-11-15T13:17:56;14.13;;;12.30;;
15061;SDS011;7630;50.306;8.566;2022-11-15T13:21:57;11.47;;;10.47;;
15061;SDS011;7630;50.306;8.566;2022-11-15T13:26:17;14.43;;;13.23;;
15061;SDS011;7630;50.306;8.566;2022-11-15T13:30:22;17.50;;;15.43;;
15061;SDS011;7630;50.306;8.566;2022-11-15T13:34:32;14.33;;;12.83;;
15061;SDS011;7630;50.306;8.566;2022-11-15T13:38:37;13.97;;;12.77;;
15061;SDS011;7630;50.306;8.566;2022-11-15T13:42:40;17.70;;;16.10;;
15061;SDS011;7630;50.306;8.566;2022-11-15T13:46:43;15.30;;;13.67;;
15061;SDS011;7630;50.306;8.566;2022-11-15T13:50:44;15.93;;;14.47;;
15061;SDS011;7630;50.306;8.566;2022-11-15T13:59:10;12.20;;;11.23;;
15061;SDS011;7630;50.306;8.566;2022-11-15T14:03:19;13.40;;;12.23;;
15061;SDS011;7630;50.306;8.566;2022-11-15T14:07:23;15.00;;;13.17;;
15061;SDS011;7630;50.306;8.566;2022-11-15T14:11:26;16.57;;;12.80;;
15061;SDS011;7630;50.306;8.566;2022-11-15T14:15:35;13.07;;;12.00;;
15061;SDS011;7630;50.306;8.566;2022-11-15T14:19:38;12.77;;;11.47;;
15061;SDS011;7630;50.306;8.566;2022-11-15T14:23:40;11.67;;;10.60;;
15061;SDS011;7630;50.306;8.566;2022-11-15T14:27:43;11.83;;;10.80;;
15061;SDS011;7630;50.306;8.566;2022-11-15T14:31:45;12.63;;;11.23;;
15061;SDS011;7630;50.306;8.566;2022-11-15T14:35:47;15.40;;;10.70;;
15061;SDS011;7630;50.306;8.566;2022-11-15T14:39:48;12.27;;;11.17;;
15061;SDS011;7630;50.306;8.566;2022-11-15T14:43:51;11.17;;;10.23;;
15061;SDS011;7630;50.306;8.566;2022-11-15T14:47:53;11.23;;;10.13;;
15061;SDS011;7630;50.306;8.566;2022-11-15T14:51:54;9.97;;;9.03;;
15061;SDS011;7630;50.306;8.566;2022-11-15T14:55:55;9.83;;;8.93;;
15061;SDS011;7630;50.306;8.566;2022-11-15T14:59:56;8.00;;;7.40;;
15061;SDS011;7630;50.306;8.566;2022-11-15T15:03:57;9.63;;;7.50;;
15061;SDS011;7630;50.306;8.566;2022-11-15T15:07:59;8.30;;;7.60;;
15061;SDS011;7630;50.306;8.566;2022-11-15T15:12:01;10.27;;;9.03;;
15061;SDS011;7630;50.306;8.566;2022-11-15T15:16:04;9.73;;;8.93;;
15061;SDS011;7630;50.306;8.566;2022-11-15T15:20:06;10.70;;;8.80;;
15061;SDS011;7630;50.306;8.566;2022-11-15T15:24:13;9.40;;;8.60;;
15061;SDS011;7630;50.306;8.566;2022-11-15T15:28:15;9.17;;;8.43;;
15061;SDS011;7630;50.306;8.566;2022-11-15T15:32:16;10.23;;;9.43;;
15061;SDS011;7630;50.306;8.566;2022-11-15T15:36:18;11.77;;;10.77;;
15061;SDS011;7630;50.306;8.566;2022-11-15T15:40:20;14.33;;;12.57;;
15061;SDS011;7630;50.306;8.566;2022-11-15T15:44:22;11.80;;;10.70;;
15061;SDS011;7630;50.306;8.566;2022-11-15T15:48:24;11.10;;;9.93;;
15061;SDS011;7630;50.306;8.566;2022-11-15T15:52:25;9.60;;;8.60;;
15061;SDS011;7630;50.306;8.566;2022-11-15T15:56:26;9.43;;;8.37;;
15061;SDS011;7630;50.306;8.566;2022-11-15T16:00:28;10.20;;;9.20;;
15061;SDS011;7630;50.306;8.566;2022-11-15T16:04:30;10.17;;;9.27;;
15061;SDS011;7630;50.306;8.566;2022-11-15T16:08:31;9.57;;;8.77;;
15061;SDS011;7630;50.306;8.566;2022-11-15T16:12:34;12.37;;;11.17;;
15061;SDS011;7630;50.306;8.566;2022-11-15T16:16:35;13.93;;;12.53;;
15061;SDS011;7630;50.306;8.566;2022-11-15T16:24:45;9.90;;;9.00;;
15061;SDS011;7630;50.306;8.566;2022-11-15T16:28:46;11.47;;;10.40;;
15061;SDS011;7630;50.306;8.566;2022-11-15T16:32:47;11.53;;;8.33;;
15061;SDS011;7630;50.306;8.566;2022-11-15T16:36:49;8.53;;;7.73;;
15061;SDS011;7630;50.306;8.566;2022-11-15T16:40:51;8.20;;;7.10;;
15061;SDS011;7630;50.306;8.566;2022-11-15T16:44:52;8.10;;;7.50;;
15061;SDS011;7630;50.306;8.566;2022-11-15T16:48:53;9.30;;;8.43;;
15061;SDS011;7630;50.306;8.566;2022-11-15T16:52:55;11.03;;;9.50;;
15061;SDS011;7630;50.306;8.566;2022-11-15T16:56:58;8.10;;;7.47;;
15061;SDS011;7630;50.306;8.566;2022-11-15T17:00:59;7.12;;;6.62;;
15061;SDS011;7630;50.306;8.566;2022-11-15T17:05:00;9.90;;;7.20;;
15061;SDS011;7630;50.306;8.566;2022-11-15T17:09:03;10.67;;;9.67;;
15061;SDS011;7630;50.306;8.566;2022-11-15T17:13:04;11.80;;;8.90;;
15061;SDS011;7630;50.306;8.566;2022-11-15T17:17:07;12.10;;;11.00;;
15061;SDS011;7630;50.306;8.566;2022-11-15T17:21:12;8.38;;;7.67;;
15061;SDS011;7630;50.306;8.566;2022-11-15T17:25:14;15.57;;;7.73;;
15061;SDS011;7630;50.306;8.566;2022-11-15T17:29:15;9.37;;;8.63;;
15061;SDS011;7630;50.306;8.566;2022-11-15T17:33:16;9.10;;;8.27;;
15061;SDS011;7630;50.306;8.566;2022-11-15T17:37:17;12.80;;;8.37;;
15061;SDS011;7630;50.306;8.566;2022-11-15T17:41:19;9.73;;;8.93;;
15061;SDS011;7630;50.306;8.566;2022-11-15T17:45:22;8.57;;;7.80;;
15061;SDS011;7630;50.306;8.566;2022-11-15T17:49:23;12.83;;;11.73;;
15061;SDS011;7630;50.306;8.566;2022-11-15T17:53:25;11.73;;;10.53;;
15061;SDS011;7630;50.306;8.566;2022-11-15T17:57:27;13.17;;;11.77;;
15061;SDS011;7630;50.306;8.566;2022-11-15T18:01:30;11.70;;;10.60;;
15061;SDS011;7630;50.306;8.566;2022-11-15T18:05:36;11.30;;;10.00;;
15061;SDS011;7630;50.306;8.566;2022-11-15T18:09:38;10.83;;;9.83;;
15061;SDS011;7630;50.306;8.566;2022-11-15T18:13:42;9.90;;;8.87;;
15061;SDS011;7630;50.306;8.566;2022-11-15T18:17:47;12.07;;;9.63;;
15061;SDS011;7630;50.306;8.566;2022-11-15T18:21:48;16.20;;;14.70;;
15061;SDS011;7630;50.306;8.566;2022-11-15T18:25:55;17.20;;;15.47;;
15061;SDS011;7630;50.306;8.566;2022-11-15T18:29:57;17.73;;;15.07;;
15061;SDS011;7630;50.306;8.566;2022-11-15T18:33:59;20.03;;;15.47;;
15061;SDS011;7630;50.306;8.566;2022-11-15T18:38:00;21.00;;;18.80;;
15061;SDS011;7630;50.306;8.566;2022-11-15T18:42:01;24.30;;;21.93;;
15061;SDS011;7630;50.306;8.566;2022-11-15T18:50:10;12.27;;;8.70;;
15061;SDS011;7630;50.306;8.566;2022-11-15T18:54:12;10.03;;;9.10;;
15061;SDS011;7630;50.306;8.566;2022-11-15T18:58:15;9.10;;;8.20;;
15061;SDS011;7630;50.306;8.566;2022-11-15T19:02:16;9.17;;;8.03;;
15061;SDS011;7630;50.306;8.566;2022-11-15T19:06:24;8.33;;;7.40;;
15061;SDS011;7630;50.306;8.566;2022-11-15T19:10:27;11.83;;;10.67;;
15061;SDS011;7630;50.306;8.566;2022-11-15T19:14:28;9.80;;;8.90;;
15061;SDS011;7630;50.306;8.566;2022-11-15T19:18:30;8.87;;;8.00;;
15061;SDS011;7630;50.306;8.566;2022-11-15T19:22:33;13.23;;;9.20;;
15061;SDS011;7630;50.306;8.566;2022-11-15T19:26:34;14.83;;;12.70;;
15061;SDS011;7630;50.306;8.566;2022-11-15T19:30:38;9.27;;;8.37;;
15061;SDS011;7630;50.306;8.566;2022-11-15T19:34:40;8.90;;;8.00;;
15061;SDS011;7630;50.306;8.566;2022-11-15T19:38:41;9.30;;;8.30;;
15061;SDS011;7630;50.306;8.566;2022-11-15T19:42:44;10.10;;;9.10;;
15061;SDS011;7630;50.306;8.566;2022-11-15T19:46:45;10.97;;;9.77;;
15061;SDS011;7630;50.306;8.566;2022-11-15T19:50:47;11.67;;;10.67;;
15061;SDS011;7630;50.306;8.566;2022-11-15T19:54:49;10.53;;;9.50;;
15061;SDS011;7630;50.306;8.566;2022-11-15T19:58:53;9.73;;;8.73;;
15061;SDS011;7630;50.306;8.566;2022-11-15T20:02:56;12.27;;;8.93;;
15061;SDS011;7630;50.306;8.566;2022-11-15T20:06:57;13.62;;;12.50;;
15061;SDS011;7630;50.306;8.566;2022-11-15T20:11:01;13.70;;;12.27;;
15061;SDS011;7630;50.306;8.566;2022-11-15T20:15:03;11.37;;;10.23;;
15061;SDS011;7630;50.306;8.566;2022-11-15T20:19:05;10.50;;;9.60;;
15061;SDS011;7630;50.306;8.566;2022-11-15T20:23:08;11.83;;;10.60;;
15061;SDS011;7630;50.306;8.566;2022-11-15T20:27:10;10.30;;;9.37;;
15061;SDS011;7630;50.306;8.566;2022-11-15T20:31:11;10.37;;;9.37;;
15061;SDS011;7630;50.306;8.566;2022-11-15T20:35:13;10.10;;;8.87;;
15061;SDS011;7630;50.306;8.566;2022-11-15T20:39:14;10.77;;;9.70;;
15061;SDS011;7630;50.306;8.566;2022-11-15T20:43:18;12.90;;;9.93;;
15061;SDS011;7630;50.306;8.566;2022-11-15T20:47:20;11.03;;;10.13;;
15061;SDS011;7630;50.306;8.566;2022-11-15T20:51:23;12.67;;;10.63;;
15061;SDS011;7630;50.306;8.566;2022-11-15T20:55:24;15.30;;;13.47;;
15061;SDS011;7630;50.306;8.566;2022-11-15T20:59:25;15.77;;;14.37;;
15061;SDS011;7630;50.306;8.566;2022-11-15T21:03:27;15.03;;;12.83;;
15061;SDS011;7630;50.306;8.566;2022-11-15T21:07:28;16.50;;;15.07;;
15061;SDS011;7630;50.306;8.566;2022-11-15T21:11:30;19.90;;;18.10;;
15061;SDS011;7630;50.306;8.566;2022-11-15T21:15:49;15.03;;;13.73;;
15061;SDS011;7630;50.306;8.566;2022-11-15T21:19:50;18.57;;;14.03;;
15061;SDS011;7630;50.306;8.566;2022-11-15T21:23:51;14.47;;;13.17;;
15061;SDS011;7630;50.306;8.566;2022-11-15T21:27:53;13.10;;;11.87;;
15061;SDS011;7630;50.306;8.566;2022-11-15T21:31:54;9.40;;;8.50;;
15061;SDS011;7630;50.306;8.566;2022-11-15T21:35:56;11.13;;;9.93;;
15061;SDS011;7630;50.306;8.566;2022-11-15T21:39:58;9.90;;;9.00;;
15061;SDS011;7630;50.306;8.566;2022-11-15T21:43:59;13.93;;;11.73;;
15061;SDS011;7630;50.306;8.566;2022-11-15T21:48:01;18.17;;;16.30;;
15061;SDS011;7630;50.306;8.566;2022-11-15T21:52:04;18.73;;;16.67;;
15061;SDS011;7630;50.306;8.566;2022-11-15T21:56:05;24.30;;;17.47;;
15061;SDS011;7630;50.306;8.566;2022-11-15T22:00:08;20.13;;;15.97;;
15061;SDS011;7630;50.306;8.566;2022-11-15T22:04:28;23.00;;;18.87;;
15061;SDS011;7630;50.306;8.566;2022-11-15T22:08:29;36.03;;;29.00;;
15061;SDS011;7630;50.306;8.566;2022-11-15T22:12:31;24.23;;;21.60;;
15061;SDS011;7630;50.306;8.566;2022-11-15T22:16:32;12.07;;;9.53;;
15061;SDS011;7630;50.306;8.566;2022-11-15T22:20:34;11.70;;;10.60;;
15061;SDS011;7630;50.306;8.566;2022-11-15T22:24:37;11.20;;;10.20;;
15061;SDS011;7630;50.306;8.566;2022-11-15T22:28:38;11.10;;;10.07;;
15061;SDS011;7630;50.306;8.566;2022-11-15T22:32:39;13.87;;;12.43;;
15061;SDS011;7630;50.306;8.566;2022-11-15T22:36:40;12.90;;;11.70;;
15061;SDS011;7630;50.306;8.566;2022-11-15T22:40:45;12.40;;;11.30;;
15061;SDS011;7630;50.306;8.566;2022-11-15T22:44:47;18.33;;;16.33;;
15061;SDS011;7630;50.306;8.566;2022-11-15T22:48:48;15.43;;;13.87;;
15061;SDS011;7630;50.306;8.566;2022-11-15T22:52:52;15.80;;;14.30;;
15061;SDS011;7630;50.306;8.566;2022-11-15T22:56:53;14.43;;;13.13;;
15061;SDS011;7630;50.306;8.566;2022-11-15T23:00:55;13.40;;;12.20;;
15061;SDS011;7630;50.306;8.566;2022-11-15T23:04:58;13.27;;;12.03;;
15061;SDS011;7630;50.306;8.566;2022-11-15T23:08:59;13.70;;;12.47;;
15061;SDS011;7630;50.306;8.566;2022-11-15T23:13:07;12.43;;;11.27;;
15061;SDS011;7630;50.306;8.566;2022-11-15T23:17:17;13.23;;;12.10;;
15061;SDS011;7630;50.306;8.566;2022-11-15T23:21:20;12.47;;;11.33;;
15061;SDS011;7630;50.306;8.566;2022-11-15T23:26:00;12.70;;;11.43;;
15061;SDS011;7630;50.306;8.566;2022-11-15T23:30:01;12.63;;;11.30;;
15061;SDS011;7630;50.306;8.566;2022-11-15T23:34:21;12.87;;;10.90;;
15061;SDS011;7630;50.306;8.566;2022-11-15T23:38:22;10.93;;;10.13;;
15061;SDS011;7630;50.306;8.566;2022-11-15T23:42:24;13.43;;;12.13;;
15061;SDS011;7630;50.306;8.566;2022-11-15T23:46:25;13.60;;;12.40;;
15061;SDS011;7630;50.306;8.566;2022-11-15T23:50:26;12.40;;;11.30;;
15061;SDS011;7630;50.306;8.566;2022-11-15T23:54:28;11.87;;;10.87;;
15061;SDS011;7630;50.306;8.566;2022-11-15T23:58:30;13.53;;;12.23;;
